sensor_id;sensor_type;location;lat;lon;timestamp;temperature;humidity
51557;DHT22;38766;53.194;5.532;2023-04-15T00:01:15;8.60;99.90
51557;DHT22;38766;53.194;5.532;2023-04-15T00:03:43;8.60;99.90
51557;DHT22;38766;53.194;5.532;2023-04-15T00:06:09;8.60;99.90
51557;DHT22;38766;53.194;5.532;2023-04-15T00:08:35;8.60;99.90
51557;DHT22;38766;53.194;5.532;2023-04-15T00:11:00;8.50;99.90
51557;DHT22;38766;53.194;5.532;2023-04-15T00:13:32;8.60;99.90
51557;DHT22;38766;53.194;5.532;2023-04-15T00:15:59;8.50;99.90
51557;DHT22;38766;53.194;5.532;2023-04-15T00:18:25;8.50;99.90
51557;DHT22;38766;53.194;5.532;2023-04-15T00:20:51;8.40;99.90
51557;DHT22;38766;53.194;5.532;2023-04-15T00:23:17;8.40;99.90
51557;DHT22;38766;53.194;5.532;2023-04-15T00:25:42;8.40;99.90
51557;DHT22;38766;53.194;5.532;2023-04-15T00:28:09;8.40;99.90
51557;DHT22;38766;53.194;5.532;2023-04-15T00:30:34;8.30;99.90
51557;DHT22;38766;53.194;5.532;2023-04-15T00:33:00;8.50;99.90
51557;DHT22;38766;53.194;5.532;2023-04-15T00:35:29;8.40;99.90
51557;DHT22;38766;53.194;5.532;2023-04-15T00:37:57;8.30;99.90
51557;DHT22;38766;53.194;5.532;2023-04-15T00:40:23;8.30;99.90
51557;DHT22;38766;53.194;5.532;2023-04-15T00:42:49;8.30;99.90
51557;DHT22;38766;53.194;5.532;2023-04-15T00:45:15;8.30;99.90
51557;DHT22;38766;53.194;5.532;2023-04-15T00:47:42;8.30;99.90
51557;DHT22;38766;53.194;5.532;2023-04-15T00:50:09;8.30;99.90
51557;DHT22;38766;53.194;5.532;2023-04-15T00:52:35;8.30;99.90
51557;DHT22;38766;53.194;5.532;2023-04-15T00:55:02;8.20;99.90
51557;DHT22;38766;53.194;5.532;2023-04-15T00:57:29;8.20;99.90
51557;DHT22;38766;53.194;5.532;2023-04-15T00:59:55;8.30;99.90
51557;DHT22;38766;53.194;5.532;2023-04-15T01:02:22;8.20;99.90
51557;DHT22;38766;53.194;5.532;2023-04-15T01:04:48;8.10;99.90
51557;DHT22;38766;53.194;5.532;2023-04-15T01:07:14;8.10;99.90
51557;DHT22;38766;53.194;5.532;2023-04-15T01:09:40;8.10;99.90
51557;DHT22;38766;53.194;5.532;2023-04-15T01:12:07;8.00;99.90
51557;DHT22;38766;53.194;5.532;2023-04-15T01:14:34;8.00;99.90
51557;DHT22;38766;53.194;5.532;2023-04-15T01:17:00;8.00;99.90
51557;DHT22;38766;53.194;5.532;2023-04-15T01:19:26;7.90;99.90
51557;DHT22;38766;53.194;5.532;2023-04-15T01:21:53;7.90;99.90
51557;DHT22;38766;53.194;5.532;2023-04-15T01:24:19;7.90;99.90
51557;DHT22;38766;53.194;5.532;2023-04-15T01:26:45;7.80;99.90
51557;DHT22;38766;53.194;5.532;2023-04-15T01:29:11;7.80;99.90
51557;DHT22;38766;53.194;5.532;2023-04-15T01:31:37;7.80;99.90
51557;DHT22;38766;53.194;5.532;2023-04-15T01:34:03;7.80;99.90
51557;DHT22;38766;53.194;5.532;2023-04-15T01:36:29;7.80;99.90
51557;DHT22;38766;53.194;5.532;2023-04-15T01:38:55;7.80;99.90
51557;DHT22;38766;53.194;5.532;2023-04-15T01:41:30;7.70;99.90
51557;DHT22;38766;53.194;5.532;2023-04-15T01:43:56;7.70;99.90
51557;DHT22;38766;53.194;5.532;2023-04-15T01:46:22;7.70;99.90
51557;DHT22;38766;53.194;5.532;2023-04-15T01:48:47;7.60;99.90
51557;DHT22;38766;53.194;5.532;2023-04-15T01:51:13;7.60;99.90
51557;DHT22;38766;53.194;5.532;2023-04-15T01:53:39;7.60;99.90
51557;DHT22;38766;53.194;5.532;2023-04-15T01:56:05;7.60;99.90
51557;DHT22;38766;53.194;5.532;2023-04-15T01:58:31;7.60;99.90
51557;DHT22;38766;53.194;5.532;2023-04-15T02:00:57;7.50;99.90
51557;DHT22;38766;53.194;5.532;2023-04-15T02:03:24;7.40;99.90
51557;DHT22;38766;53.194;5.532;2023-04-15T02:05:50;7.50;99.90
51557;DHT22;38766;53.194;5.532;2023-04-15T02:08:16;7.50;99.90
51557;DHT22;38766;53.194;5.532;2023-04-15T02:10:42;7.50;99.90
51557;DHT22;38766;53.194;5.532;2023-04-15T02:13:08;7.50;99.90
51557;DHT22;38766;53.194;5.532;2023-04-15T02:15:34;7.40;99.90
51557;DHT22;38766;53.194;5.532;2023-04-15T02:17:59;7.50;99.90
51557;DHT22;38766;53.194;5.532;2023-04-15T02:20:26;7.50;99.90
51557;DHT22;38766;53.194;5.532;2023-04-15T02:22:52;7.50;99.90
51557;DHT22;38766;53.194;5.532;2023-04-15T02:25:17;7.40;99.90
51557;DHT22;38766;53.194;5.532;2023-04-15T02:27:44;7.40;99.90
51557;DHT22;38766;53.194;5.532;2023-04-15T02:30:10;7.40;99.90
51557;DHT22;38766;53.194;5.532;2023-04-15T02:32:36;7.40;99.90
51557;DHT22;38766;53.194;5.532;2023-04-15T02:35:06;7.30;99.90
51557;DHT22;38766;53.194;5.532;2023-04-15T02:37:34;7.40;99.90
51557;DHT22;38766;53.194;5.532;2023-04-15T02:40:07;7.40;99.90
51557;DHT22;38766;53.194;5.532;2023-04-15T02:42:33;7.40;99.90
51557;DHT22;38766;53.194;5.532;2023-04-15T02:44:59;7.40;99.90
51557;DHT22;38766;53.194;5.532;2023-04-15T02:47:25;7.30;99.90
51557;DHT22;38766;53.194;5.532;2023-04-15T02:49:51;7.30;99.90
51557;DHT22;38766;53.194;5.532;2023-04-15T02:52:17;7.30;99.90
51557;DHT22;38766;53.194;5.532;2023-04-15T02:54:42;7.20;99.90
51557;DHT22;38766;53.194;5.532;2023-04-15T02:57:08;7.20;99.90
51557;DHT22;38766;53.194;5.532;2023-04-15T02:59:35;7.20;99.90
51557;DHT22;38766;53.194;5.532;2023-04-15T03:02:01;7.20;99.90
51557;DHT22;38766;53.194;5.532;2023-04-15T03:04:27;7.20;99.90
51557;DHT22;38766;53.194;5.532;2023-04-15T03:06:54;7.20;99.90
51557;DHT22;38766;53.194;5.532;2023-04-15T03:09:21;7.10;99.90
51557;DHT22;38766;53.194;5.532;2023-04-15T03:11:46;7.10;99.90
51557;DHT22;38766;53.194;5.532;2023-04-15T03:14:12;7.10;99.90
51557;DHT22;38766;53.194;5.532;2023-04-15T03:16:38;7.10;99.90
51557;DHT22;38766;53.194;5.532;2023-04-15T03:19:03;7.10;99.90
51557;DHT22;38766;53.194;5.532;2023-04-15T03:21:29;7.10;99.90
51557;DHT22;38766;53.194;5.532;2023-04-15T03:23:56;7.10;99.90
51557;DHT22;38766;53.194;5.532;2023-04-15T03:26:31;7.00;99.90
51557;DHT22;38766;53.194;5.532;2023-04-15T03:28:57;7.00;99.90
51557;DHT22;38766;53.194;5.532;2023-04-15T03:31:23;7.10;99.90
51557;DHT22;38766;53.194;5.532;2023-04-15T03:33:49;7.00;99.90
51557;DHT22;38766;53.194;5.532;2023-04-15T03:36:15;7.00;99.90
51557;DHT22;38766;53.194;5.532;2023-04-15T03:38:41;7.00;99.90
51557;DHT22;38766;53.194;5.532;2023-04-15T03:41:07;7.00;99.90
51557;DHT22;38766;53.194;5.532;2023-04-15T03:43:34;7.00;99.90
51557;DHT22;38766;53.194;5.532;2023-04-15T03:46:00;7.00;99.90
51557;DHT22;38766;53.194;5.532;2023-04-15T03:48:26;7.00;99.90
51557;DHT22;38766;53.194;5.532;2023-04-15T03:50:51;7.00;99.90
51557;DHT22;38766;53.194;5.532;2023-04-15T03:53:17;7.00;99.90
51557;DHT22;38766;53.194;5.532;2023-04-15T03:55:43;7.00;99.90
51557;DHT22;38766;53.194;5.532;2023-04-15T03:58:09;7.00;99.90
51557;DHT22;38766;53.194;5.532;2023-04-15T04:00:37;7.00;99.90
51557;DHT22;38766;53.194;5.532;2023-04-15T04:03:03;6.90;99.90
51557;DHT22;38766;53.194;5.532;2023-04-15T04:05:29;6.90;99.90
51557;DHT22;38766;53.194;5.532;2023-04-15T04:07:54;6.90;99.90
51557;DHT22;38766;53.194;5.532;2023-04-15T04:10:20;6.90;99.90
51557;DHT22;38766;53.194;5.532;2023-04-15T04:12:46;6.90;99.90
51557;DHT22;38766;53.194;5.532;2023-04-15T04:15:11;6.80;99.90
51557;DHT22;38766;53.194;5.532;2023-04-15T04:17:37;6.90;99.90
51557;DHT22;38766;53.194;5.532;2023-04-15T04:20:03;6.90;99.90
51557;DHT22;38766;53.194;5.532;2023-04-15T04:22:30;6.80;99.90
51557;DHT22;38766;53.194;5.532;2023-04-15T04:24:55;6.80;99.90
51557;DHT22;38766;53.194;5.532;2023-04-15T04:27:24;6.80;99.90
51557;DHT22;38766;53.194;5.532;2023-04-15T04:29:49;6.80;99.90
51557;DHT22;38766;53.194;5.532;2023-04-15T04:32:15;6.80;99.90
51557;DHT22;38766;53.194;5.532;2023-04-15T04:34:41;6.80;99.90
51557;DHT22;38766;53.194;5.532;2023-04-15T04:37:06;6.80;99.90
51557;DHT22;38766;53.194;5.532;2023-04-15T04:39:32;6.70;99.90
51557;DHT22;38766;53.194;5.532;2023-04-15T04:41:58;6.70;99.90
51557;DHT22;38766;53.194;5.532;2023-04-15T04:44:23;6.70;99.90
51557;DHT22;38766;53.194;5.532;2023-04-15T04:46:49;6.80;99.90
51557;DHT22;38766;53.194;5.532;2023-04-15T04:49:15;6.70;99.90
51557;DHT22;38766;53.194;5.532;2023-04-15T04:51:40;6.70;99.90
51557;DHT22;38766;53.194;5.532;2023-04-15T04:54:06;6.70;99.90
51557;DHT22;38766;53.194;5.532;2023-04-15T04:56:32;6.80;99.90
51557;DHT22;38766;53.194;5.532;2023-04-15T04:58:59;6.70;99.90
51557;DHT22;38766;53.194;5.532;2023-04-15T05:01:25;6.80;99.90
51557;DHT22;38766;53.194;5.532;2023-04-15T05:03:52;6.80;99.90
51557;DHT22;38766;53.194;5.532;2023-04-15T05:06:17;6.80;99.90
51557;DHT22;38766;53.194;5.532;2023-04-15T05:08:43;6.80;99.90
51557;DHT22;38766;53.194;5.532;2023-04-15T05:11:08;6.80;99.90
51557;DHT22;38766;53.194;5.532;2023-04-15T05:13:34;6.80;99.90
51557;DHT22;38766;53.194;5.532;2023-04-15T05:16:03;6.80;99.90
51557;DHT22;38766;53.194;5.532;2023-04-15T05:18:29;6.80;99.90
51557;DHT22;38766;53.194;5.532;2023-04-15T05:20:55;6.80;99.90
51557;DHT22;38766;53.194;5.532;2023-04-15T05:23:21;6.80;99.90
51557;DHT22;38766;53.194;5.532;2023-04-15T05:25:46;6.80;99.90
51557;DHT22;38766;53.194;5.532;2023-04-15T05:28:12;6.80;99.90
51557;DHT22;38766;53.194;5.532;2023-04-15T05:30:38;6.70;99.90
51557;DHT22;38766;53.194;5.532;2023-04-15T05:33:04;6.80;99.90
51557;DHT22;38766;53.194;5.532;2023-04-15T05:35:29;6.80;99.90
51557;DHT22;38766;53.194;5.532;2023-04-15T05:37:55;6.90;99.90
51557;DHT22;38766;53.194;5.532;2023-04-15T05:40:21;6.90;99.90
51557;DHT22;38766;53.194;5.532;2023-04-15T05:42:47;6.90;99.90
51557;DHT22;38766;53.194;5.532;2023-04-15T05:45:13;7.00;99.90
51557;DHT22;38766;53.194;5.532;2023-04-15T05:47:38;7.00;99.90
51557;DHT22;38766;53.194;5.532;2023-04-15T05:50:04;7.00;99.90
51557;DHT22;38766;53.194;5.532;2023-04-15T05:52:31;7.00;99.90
51557;DHT22;38766;53.194;5.532;2023-04-15T05:54:56;7.10;99.90
51557;DHT22;38766;53.194;5.532;2023-04-15T05:57:22;7.10;99.90
51557;DHT22;38766;53.194;5.532;2023-04-15T05:59:48;7.10;99.90
51557;DHT22;38766;53.194;5.532;2023-04-15T06:02:15;7.10;99.90
51557;DHT22;38766;53.194;5.532;2023-04-15T06:04:41;7.20;99.90
51557;DHT22;38766;53.194;5.532;2023-04-15T06:07:08;7.20;99.90
51557;DHT22;38766;53.194;5.532;2023-04-15T06:09:34;7.40;99.90
51557;DHT22;38766;53.194;5.532;2023-04-15T06:11:59;7.30;99.90
51557;DHT22;38766;53.194;5.532;2023-04-15T06:14:26;7.40;99.90
51557;DHT22;38766;53.194;5.532;2023-04-15T06:16:52;7.40;99.90
51557;DHT22;38766;53.194;5.532;2023-04-15T06:19:17;7.50;99.90
51557;DHT22;38766;53.194;5.532;2023-04-15T06:21:43;7.60;99.90
51557;DHT22;38766;53.194;5.532;2023-04-15T06:24:10;7.60;99.90
51557;DHT22;38766;53.194;5.532;2023-04-15T06:26:36;7.70;99.90
51557;DHT22;38766;53.194;5.532;2023-04-15T06:29:02;7.80;99.90
51557;DHT22;38766;53.194;5.532;2023-04-15T06:31:28;7.80;99.90
51557;DHT22;38766;53.194;5.532;2023-04-15T06:33:53;8.00;99.90
51557;DHT22;38766;53.194;5.532;2023-04-15T06:36:19;8.20;99.90
51557;DHT22;38766;53.194;5.532;2023-04-15T06:38:45;8.40;99.90
51557;DHT22;38766;53.194;5.532;2023-04-15T06:41:11;8.50;99.90
51557;DHT22;38766;53.194;5.532;2023-04-15T06:43:37;8.70;99.90
51557;DHT22;38766;53.194;5.532;2023-04-15T06:46:02;8.90;99.90
51557;DHT22;38766;53.194;5.532;2023-04-15T06:48:28;9.20;99.90
51557;DHT22;38766;53.194;5.532;2023-04-15T06:50:54;9.40;99.90
51557;DHT22;38766;53.194;5.532;2023-04-15T06:53:19;9.50;99.90
51557;DHT22;38766;53.194;5.532;2023-04-15T06:55:46;9.70;99.90
51557;DHT22;38766;53.194;5.532;2023-04-15T06:58:12;9.80;99.90
51557;DHT22;38766;53.194;5.532;2023-04-15T07:00:37;9.90;99.90
51557;DHT22;38766;53.194;5.532;2023-04-15T07:03:04;10.00;99.90
51557;DHT22;38766;53.194;5.532;2023-04-15T07:05:30;10.10;99.90
51557;DHT22;38766;53.194;5.532;2023-04-15T07:07:56;10.20;99.90
51557;DHT22;38766;53.194;5.532;2023-04-15T07:10:22;10.20;99.90
51557;DHT22;38766;53.194;5.532;2023-04-15T07:12:48;10.30;99.90
51557;DHT22;38766;53.194;5.532;2023-04-15T07:15:15;10.20;99.90
51557;DHT22;38766;53.194;5.532;2023-04-15T07:17:41;10.10;99.90
51557;DHT22;38766;53.194;5.532;2023-04-15T07:20:08;10.10;99.90
51557;DHT22;38766;53.194;5.532;2023-04-15T07:22:33;10.10;99.90
51557;DHT22;38766;53.194;5.532;2023-04-15T07:24:59;10.00;99.90
51557;DHT22;38766;53.194;5.532;2023-04-15T07:27:25;10.00;99.90
51557;DHT22;38766;53.194;5.532;2023-04-15T07:29:52;10.10;99.90
51557;DHT22;38766;53.194;5.532;2023-04-15T07:32:18;10.10;99.90
51557;DHT22;38766;53.194;5.532;2023-04-15T07:34:44;10.10;99.90
51557;DHT22;38766;53.194;5.532;2023-04-15T07:37:10;10.10;99.90
51557;DHT22;38766;53.194;5.532;2023-04-15T07:39:35;10.10;99.90
51557;DHT22;38766;53.194;5.532;2023-04-15T07:42:02;10.10;99.90
51557;DHT22;38766;53.194;5.532;2023-04-15T07:44:28;10.10;99.90
51557;DHT22;38766;53.194;5.532;2023-04-15T07:46:55;10.10;99.90
51557;DHT22;38766;53.194;5.532;2023-04-15T07:49:21;10.10;99.90
51557;DHT22;38766;53.194;5.532;2023-04-15T07:51:47;10.20;99.90
51557;DHT22;38766;53.194;5.532;2023-04-15T07:54:13;10.10;99.90
51557;DHT22;38766;53.194;5.532;2023-04-15T07:56:39;10.10;99.90
51557;DHT22;38766;53.194;5.532;2023-04-15T07:59:06;10.10;99.90
51557;DHT22;38766;53.194;5.532;2023-04-15T08:01:31;10.20;99.90
51557;DHT22;38766;53.194;5.532;2023-04-15T08:03:58;10.20;99.90
51557;DHT22;38766;53.194;5.532;2023-04-15T08:06:24;10.20;99.90
51557;DHT22;38766;53.194;5.532;2023-04-15T08:08:49;10.20;99.90
51557;DHT22;38766;53.194;5.532;2023-04-15T08:11:15;10.20;99.90
51557;DHT22;38766;53.194;5.532;2023-04-15T08:13:41;10.20;99.90
51557;DHT22;38766;53.194;5.532;2023-04-15T08:16:16;10.20;99.90
51557;DHT22;38766;53.194;5.532;2023-04-15T08:18:43;10.20;99.90
51557;DHT22;38766;53.194;5.532;2023-04-15T08:21:10;10.20;99.90
51557;DHT22;38766;53.194;5.532;2023-04-15T08:23:36;10.30;99.90
51557;DHT22;38766;53.194;5.532;2023-04-15T08:26:02;10.20;99.90
51557;DHT22;38766;53.194;5.532;2023-04-15T08:28:27;10.20;99.90
51557;DHT22;38766;53.194;5.532;2023-04-15T08:30:53;10.30;99.90
51557;DHT22;38766;53.194;5.532;2023-04-15T08:33:20;10.30;99.90
51557;DHT22;38766;53.194;5.532;2023-04-15T08:35:45;10.30;99.90
51557;DHT22;38766;53.194;5.532;2023-04-15T08:38:11;10.30;99.90
51557;DHT22;38766;53.194;5.532;2023-04-15T08:40:42;10.40;99.90
51557;DHT22;38766;53.194;5.532;2023-04-15T08:43:12;10.40;99.90
51557;DHT22;38766;53.194;5.532;2023-04-15T08:45:38;10.40;99.90
51557;DHT22;38766;53.194;5.532;2023-04-15T08:48:04;10.60;99.90
51557;DHT22;38766;53.194;5.532;2023-04-15T08:50:31;10.60;99.90
51557;DHT22;38766;53.194;5.532;2023-04-15T08:52:58;10.70;99.90
51557;DHT22;38766;53.194;5.532;2023-04-15T08:55:31;10.60;99.90
51557;DHT22;38766;53.194;5.532;2023-04-15T08:58:00;10.80;99.90
51557;DHT22;38766;53.194;5.532;2023-04-15T09:00:26;10.80;99.90
51557;DHT22;38766;53.194;5.532;2023-04-15T09:02:52;10.90;99.90
51557;DHT22;38766;53.194;5.532;2023-04-15T09:05:18;11.00;99.90
51557;DHT22;38766;53.194;5.532;2023-04-15T09:07:45;11.00;99.90
51557;DHT22;38766;53.194;5.532;2023-04-15T09:10:11;11.10;99.90
51557;DHT22;38766;53.194;5.532;2023-04-15T09:12:37;11.10;99.90
51557;DHT22;38766;53.194;5.532;2023-04-15T09:15:03;11.00;99.90
51557;DHT22;38766;53.194;5.532;2023-04-15T09:17:32;11.00;99.90
51557;DHT22;38766;53.194;5.532;2023-04-15T09:20:12;11.00;99.90
51557;DHT22;38766;53.194;5.532;2023-04-15T09:22:39;11.00;99.90
51557;DHT22;38766;53.194;5.532;2023-04-15T09:28:07;11.10;99.90
51557;DHT22;38766;53.194;5.532;2023-04-15T09:30:33;11.10;99.90
51557;DHT22;38766;53.194;5.532;2023-04-15T09:33:00;11.10;99.90
51557;DHT22;38766;53.194;5.532;2023-04-15T09:35:27;11.10;99.90
51557;DHT22;38766;53.194;5.532;2023-04-15T09:38:07;11.00;99.90
51557;DHT22;38766;53.194;5.532;2023-04-15T09:40:34;11.10;99.90
51557;DHT22;38766;53.194;5.532;2023-04-15T09:43:01;11.10;99.90
51557;DHT22;38766;53.194;5.532;2023-04-15T09:45:27;11.20;99.90
51557;DHT22;38766;53.194;5.532;2023-04-15T09:47:53;11.20;99.90
51557;DHT22;38766;53.194;5.532;2023-04-15T09:50:19;11.30;99.90
51557;DHT22;38766;53.194;5.532;2023-04-15T09:52:46;11.40;99.90
51557;DHT22;38766;53.194;5.532;2023-04-15T09:55:13;11.40;99.90
51557;DHT22;38766;53.194;5.532;2023-04-15T09:57:39;11.50;99.90
51557;DHT22;38766;53.194;5.532;2023-04-15T10:00:14;11.50;99.90
51557;DHT22;38766;53.194;5.532;2023-04-15T10:02:40;11.60;99.90
51557;DHT22;38766;53.194;5.532;2023-04-15T10:05:11;11.70;99.90
51557;DHT22;38766;53.194;5.532;2023-04-15T10:07:38;11.80;99.90
51557;DHT22;38766;53.194;5.532;2023-04-15T10:10:06;11.90;99.90
51557;DHT22;38766;53.194;5.532;2023-04-15T10:12:32;12.00;99.90
51557;DHT22;38766;53.194;5.532;2023-04-15T10:15:03;12.00;99.90
51557;DHT22;38766;53.194;5.532;2023-04-15T10:17:31;12.00;99.90
51557;DHT22;38766;53.194;5.532;2023-04-15T10:20:03;12.10;99.90
51557;DHT22;38766;53.194;5.532;2023-04-15T10:22:29;12.20;99.90
51557;DHT22;38766;53.194;5.532;2023-04-15T10:24:56;12.30;99.90
51557;DHT22;38766;53.194;5.532;2023-04-15T10:27:22;12.60;99.90
51557;DHT22;38766;53.194;5.532;2023-04-15T10:29:50;12.70;99.90
51557;DHT22;38766;53.194;5.532;2023-04-15T10:32:18;12.90;99.90
51557;DHT22;38766;53.194;5.532;2023-04-15T10:34:46;13.10;99.90
51557;DHT22;38766;53.194;5.532;2023-04-15T10:37:12;13.20;99.90
51557;DHT22;38766;53.194;5.532;2023-04-15T10:39:44;13.20;99.90
51557;DHT22;38766;53.194;5.532;2023-04-15T10:42:15;13.20;99.90
51557;DHT22;38766;53.194;5.532;2023-04-15T10:44:43;13.20;99.90
51557;DHT22;38766;53.194;5.532;2023-04-15T10:47:17;13.00;99.90
51557;DHT22;38766;53.194;5.532;2023-04-15T10:49:48;12.90;99.90
51557;DHT22;38766;53.194;5.532;2023-04-15T10:52:17;12.60;99.90
51557;DHT22;38766;53.194;5.532;2023-04-15T10:54:43;12.50;99.90
51557;DHT22;38766;53.194;5.532;2023-04-15T10:57:14;12.30;99.90
51557;DHT22;38766;53.194;5.532;2023-04-15T11:00:00;12.30;99.90
51557;DHT22;38766;53.194;5.532;2023-04-15T11:08:06;11.90;99.90
51557;DHT22;38766;53.194;5.532;2023-04-15T11:13:03;11.80;99.90
51557;DHT22;38766;53.194;5.532;2023-04-15T11:15:40;11.60;99.90
51557;DHT22;38766;53.194;5.532;2023-04-15T11:18:26;11.60;99.90
51557;DHT22;38766;53.194;5.532;2023-04-15T11:20:55;11.50;99.90
51557;DHT22;38766;53.194;5.532;2023-04-15T11:23:40;11.50;99.90
51557;DHT22;38766;53.194;5.532;2023-04-15T11:26:09;11.50;99.90
51557;DHT22;38766;53.194;5.532;2023-04-15T11:28:38;11.40;99.90
51557;DHT22;38766;53.194;5.532;2023-04-15T11:31:10;11.40;99.90
51557;DHT22;38766;53.194;5.532;2023-04-15T11:33:37;11.30;99.90
51557;DHT22;38766;53.194;5.532;2023-04-15T11:36:03;11.30;99.90
51557;DHT22;38766;53.194;5.532;2023-04-15T11:38:29;11.20;99.90
51557;DHT22;38766;53.194;5.532;2023-04-15T11:40:56;11.30;99.90
51557;DHT22;38766;53.194;5.532;2023-04-15T11:43:22;11.40;99.90
51557;DHT22;38766;53.194;5.532;2023-04-15T11:45:59;11.50;99.90
51557;DHT22;38766;53.194;5.532;2023-04-15T11:48:33;11.50;99.90
51557;DHT22;38766;53.194;5.532;2023-04-15T11:51:01;11.60;99.90
51557;DHT22;38766;53.194;5.532;2023-04-15T11:53:47;11.50;99.90
51557;DHT22;38766;53.194;5.532;2023-04-15T11:56:21;11.50;99.90
51557;DHT22;38766;53.194;5.532;2023-04-15T11:58:48;11.40;99.90
51557;DHT22;38766;53.194;5.532;2023-04-15T12:01:16;11.30;99.90
51557;DHT22;38766;53.194;5.532;2023-04-15T12:03:46;11.30;99.90
51557;DHT22;38766;53.194;5.532;2023-04-15T12:06:13;11.10;99.90
51557;DHT22;38766;53.194;5.532;2023-04-15T12:11:46;11.00;99.90
51557;DHT22;38766;53.194;5.532;2023-04-15T12:14:29;11.00;99.90
51557;DHT22;38766;53.194;5.532;2023-04-15T12:17:02;10.90;99.90
51557;DHT22;38766;53.194;5.532;2023-04-15T12:22:04;10.90;99.90
51557;DHT22;38766;53.194;5.532;2023-04-15T12:24:35;10.90;99.90
51557;DHT22;38766;53.194;5.532;2023-04-15T12:27:07;10.80;99.90
51557;DHT22;38766;53.194;5.532;2023-04-15T12:29:35;10.80;99.90
51557;DHT22;38766;53.194;5.532;2023-04-15T12:32:09;10.80;99.90
51557;DHT22;38766;53.194;5.532;2023-04-15T12:34:51;10.80;99.90
51557;DHT22;38766;53.194;5.532;2023-04-15T12:37:17;10.80;99.90
51557;DHT22;38766;53.194;5.532;2023-04-15T12:39:46;10.90;99.90
51557;DHT22;38766;53.194;5.532;2023-04-15T12:42:14;10.90;99.90
51557;DHT22;38766;53.194;5.532;2023-04-15T12:44:40;10.90;99.90
51557;DHT22;38766;53.194;5.532;2023-04-15T12:47:06;10.80;99.90
51557;DHT22;38766;53.194;5.532;2023-04-15T12:49:33;10.80;99.90
51557;DHT22;38766;53.194;5.532;2023-04-15T12:52:00;10.70;99.90
51557;DHT22;38766;53.194;5.532;2023-04-15T12:54:27;10.60;99.90
51557;DHT22;38766;53.194;5.532;2023-04-15T12:56:54;10.60;99.90
51557;DHT22;38766;53.194;5.532;2023-04-15T12:59:20;10.60;99.90
51557;DHT22;38766;53.194;5.532;2023-04-15T13:01:47;10.60;99.90
51557;DHT22;38766;53.194;5.532;2023-04-15T13:04:15;10.40;99.90
51557;DHT22;38766;53.194;5.532;2023-04-15T13:06:42;10.40;99.90
51557;DHT22;38766;53.194;5.532;2023-04-15T13:09:08;10.40;99.90
51557;DHT22;38766;53.194;5.532;2023-04-15T13:11:34;10.30;99.90
51557;DHT22;38766;53.194;5.532;2023-04-15T13:14:04;10.30;99.90
51557;DHT22;38766;53.194;5.532;2023-04-15T13:16:31;10.30;99.90
51557;DHT22;38766;53.194;5.532;2023-04-15T13:18:58;10.30;99.90
51557;DHT22;38766;53.194;5.532;2023-04-15T13:21:24;10.30;99.90
51557;DHT22;38766;53.194;5.532;2023-04-15T13:23:49;10.20;99.90
51557;DHT22;38766;53.194;5.532;2023-04-15T13:26:16;10.20;99.90
51557;DHT22;38766;53.194;5.532;2023-04-15T13:28:42;10.10;99.90
51557;DHT22;38766;53.194;5.532;2023-04-15T13:31:08;10.20;99.90
51557;DHT22;38766;53.194;5.532;2023-04-15T13:33:33;10.10;99.90
51557;DHT22;38766;53.194;5.532;2023-04-15T13:35:59;10.10;99.90
51557;DHT22;38766;53.194;5.532;2023-04-15T13:38:25;10.10;99.90
51557;DHT22;38766;53.194;5.532;2023-04-15T13:40:50;10.10;99.90
51557;DHT22;38766;53.194;5.532;2023-04-15T13:43:16;10.10;99.90
51557;DHT22;38766;53.194;5.532;2023-04-15T13:45:42;10.10;99.90
51557;DHT22;38766;53.194;5.532;2023-04-15T13:48:08;10.10;99.90
51557;DHT22;38766;53.194;5.532;2023-04-15T13:50:34;10.10;99.90
51557;DHT22;38766;53.194;5.532;2023-04-15T13:53:00;10.10;99.90
51557;DHT22;38766;53.194;5.532;2023-04-15T13:55:26;10.00;99.90
51557;DHT22;38766;53.194;5.532;2023-04-15T13:57:51;10.00;99.90
51557;DHT22;38766;53.194;5.532;2023-04-15T14:00:17;10.10;99.90
51557;DHT22;38766;53.194;5.532;2023-04-15T14:02:43;10.10;99.90
51557;DHT22;38766;53.194;5.532;2023-04-15T14:05:09;10.00;99.90
51557;DHT22;38766;53.194;5.532;2023-04-15T14:07:35;9.90;99.90
51557;DHT22;38766;53.194;5.532;2023-04-15T14:10:02;10.00;99.90
51557;DHT22;38766;53.194;5.532;2023-04-15T14:12:27;9.90;99.90
51557;DHT22;38766;53.194;5.532;2023-04-15T14:14:53;10.00;99.90
51557;DHT22;38766;53.194;5.532;2023-04-15T14:17:19;10.00;99.90
51557;DHT22;38766;53.194;5.532;2023-04-15T14:19:44;9.90;99.90
51557;DHT22;38766;53.194;5.532;2023-04-15T14:22:10;10.00;99.90
51557;DHT22;38766;53.194;5.532;2023-04-15T14:24:36;9.90;99.90
51557;DHT22;38766;53.194;5.532;2023-04-15T14:27:02;9.90;99.90
51557;DHT22;38766;53.194;5.532;2023-04-15T14:29:27;9.90;99.90
51557;DHT22;38766;53.194;5.532;2023-04-15T14:31:53;9.90;99.90
51557;DHT22;38766;53.194;5.532;2023-04-15T14:34:21;9.90;99.90
51557;DHT22;38766;53.194;5.532;2023-04-15T14:36:50;9.90;99.90
51557;DHT22;38766;53.194;5.532;2023-04-15T14:39:16;9.90;99.90
51557;DHT22;38766;53.194;5.532;2023-04-15T14:41:41;9.90;99.90
51557;DHT22;38766;53.194;5.532;2023-04-15T14:44:07;9.80;99.90
51557;DHT22;38766;53.194;5.532;2023-04-15T14:46:34;9.90;99.90
51557;DHT22;38766;53.194;5.532;2023-04-15T14:48:59;9.80;99.90
51557;DHT22;38766;53.194;5.532;2023-04-15T14:51:25;9.80;99.90
51557;DHT22;38766;53.194;5.532;2023-04-15T14:53:52;9.80;99.90
51557;DHT22;38766;53.194;5.532;2023-04-15T14:56:18;9.80;99.90
51557;DHT22;38766;53.194;5.532;2023-04-15T14:58:43;9.80;99.90
51557;DHT22;38766;53.194;5.532;2023-04-15T15:01:09;9.80;99.90
51557;DHT22;38766;53.194;5.532;2023-04-15T15:03:35;9.80;99.90
51557;DHT22;38766;53.194;5.532;2023-04-15T15:06:01;9.80;99.90
51557;DHT22;38766;53.194;5.532;2023-04-15T15:08:26;9.90;99.90
51557;DHT22;38766;53.194;5.532;2023-04-15T15:10:52;9.80;99.90
51557;DHT22;38766;53.194;5.532;2023-04-15T15:13:18;9.70;99.90
51557;DHT22;38766;53.194;5.532;2023-04-15T15:15:44;9.80;99.90
51557;DHT22;38766;53.194;5.532;2023-04-15T15:18:09;9.70;99.90
51557;DHT22;38766;53.194;5.532;2023-04-15T15:20:35;9.70;99.90
51557;DHT22;38766;53.194;5.532;2023-04-15T15:23:01;9.70;99.90
51557;DHT22;38766;53.194;5.532;2023-04-15T15:25:27;9.70;99.90
51557;DHT22;38766;53.194;5.532;2023-04-15T15:27:53;9.70;99.90
51557;DHT22;38766;53.194;5.532;2023-04-15T15:30:18;9.70;99.90
51557;DHT22;38766;53.194;5.532;2023-04-15T15:32:44;9.70;99.90
51557;DHT22;38766;53.194;5.532;2023-04-15T15:35:10;9.70;99.90
51557;DHT22;38766;53.194;5.532;2023-04-15T15:37:36;9.70;99.90
51557;DHT22;38766;53.194;5.532;2023-04-15T15:40:05;9.70;99.90
51557;DHT22;38766;53.194;5.532;2023-04-15T15:42:31;9.70;99.90
51557;DHT22;38766;53.194;5.532;2023-04-15T15:44:57;9.70;99.90
51557;DHT22;38766;53.194;5.532;2023-04-15T15:47:23;9.70;99.90
51557;DHT22;38766;53.194;5.532;2023-04-15T15:49:51;9.70;99.90
51557;DHT22;38766;53.194;5.532;2023-04-15T15:52:16;9.80;99.90
51557;DHT22;38766;53.194;5.532;2023-04-15T15:54:42;9.80;99.90